createdAt,value
2022-08-03T00:02:21.564Z,55.21
2022-08-03T00:04:50.026Z,55.65
2022-08-03T00:07:18.483Z,55.38
2022-08-03T00:09:46.861Z,55.16
2022-08-03T00:12:15.496Z,55.42
2022-08-03T00:14:44.123Z,55.58
2022-08-03T00:17:12.598Z,55.27
2022-08-03T00:19:42.340Z,55.07
2022-08-03T00:22:10.803Z,56.04
2022-08-03T00:24:39.216Z,56.26
2022-08-03T00:27:07.703Z,56.04
2022-08-03T00:29:59.384Z,56.82
2022-08-03T00:32:24.907Z,56.12
2022-08-03T00:34:57.590Z,56.79
2022-08-03T00:37:41.507Z,57.11
2022-08-03T00:40:13.109Z,57.53
2022-08-03T00:42:53.577Z,57.69
2022-08-03T00:45:24.178Z,57.94
2022-08-03T00:47:52.836Z,57.68
2022-08-03T00:50:24.850Z,57.56
2022-08-03T00:52:54.943Z,57.67
2022-08-03T00:55:24.108Z,58.06
2022-08-03T00:57:53.409Z,58.05
2022-08-03T01:00:24.366Z,58.36
2022-08-03T01:02:54.039Z,58.39
2022-08-03T01:05:24.208Z,58.65
2022-08-03T01:08:04.344Z,58.14
2022-08-03T01:10:41.828Z,58.13
2022-08-03T01:14:03.699Z,58.55
2022-08-03T01:16:16.595Z,58.92
2022-08-03T01:18:48.114Z,58.99
2022-08-03T01:21:25.993Z,58.99
2022-08-03T01:24:07.953Z,58.70
2022-08-03T01:27:04.080Z,58.91
2022-08-03T01:30:12.426Z,59.10
2022-08-03T01:33:00.295Z,59.85
2022-08-03T01:35:38.681Z,59.27
2022-08-03T01:38:11.936Z,59.49
2022-08-03T01:40:42.473Z,59.29
2022-08-03T01:43:14.454Z,59.18
2022-08-03T01:46:05.383Z,60.11
2022-08-03T01:48:37.448Z,59.58
2022-08-03T01:51:07.219Z,59.52
2022-08-03T01:53:37.993Z,59.87
2022-08-03T01:56:07.815Z,59.30
2022-08-03T01:58:37.472Z,59.49
2022-08-03T02:01:07.411Z,58.96
2022-08-03T02:03:59.676Z,59.12
2022-08-03T02:06:59.884Z,59.23
2022-08-03T02:09:22.051Z,59.37
2022-08-03T02:11:52.305Z,59.34
2022-08-03T02:14:21.391Z,59.69
2022-08-03T02:16:51.740Z,59.57
2022-08-03T02:19:22.825Z,58.93
2022-08-03T02:21:56.893Z,58.40
2022-08-03T02:24:30.536Z,58.37
2022-08-03T02:27:01.361Z,57.34
2022-08-03T02:29:40.379Z,57.26
2022-08-03T02:32:13.584Z,56.59
2022-08-03T02:34:47.343Z,56.87
2022-08-03T02:37:19.208Z,57.02
2022-08-03T02:39:49.211Z,57.08
2022-08-03T02:42:22.591Z,56.32
2022-08-03T02:44:54.448Z,56.36
2022-08-03T02:47:23.625Z,56.19
2022-08-03T02:49:55.517Z,56.45
2022-08-03T02:52:27.940Z,56.72
2022-08-03T02:55:00.188Z,55.96
2022-08-03T02:57:30.954Z,55.13
2022-08-03T03:00:01.078Z,55.32
2022-08-03T03:02:31.060Z,55.18
2022-08-03T03:05:54.339Z,54.59
2022-08-03T03:07:53.035Z,54.18
2022-08-03T03:10:23.415Z,54.75
2022-08-03T03:12:53.511Z,54.52
2022-08-03T03:15:22.350Z,53.89
2022-08-03T03:17:52.291Z,54.82
2022-08-03T03:20:29.113Z,55.29
2022-08-03T03:23:01.171Z,55.19
2022-08-03T03:25:31.697Z,54.86
2022-08-03T03:28:01.130Z,55.00
2022-08-03T03:30:31.456Z,55.64
2022-08-03T03:33:00.672Z,56.00
2022-08-03T03:35:30.732Z,56.23
2022-08-03T03:38:07.851Z,56.35
2022-08-03T03:40:36.426Z,56.10
2022-08-03T03:43:08.308Z,56.95
2022-08-03T03:45:37.082Z,57.05
2022-08-03T03:48:07.668Z,57.21
2022-08-03T03:50:40.884Z,57.47
2022-08-03T03:53:11.180Z,57.84
2022-08-03T03:56:01.636Z,58.22
2022-08-03T03:58:28.597Z,58.43
2022-08-03T04:00:57.220Z,58.92
2022-08-03T04:03:25.736Z,59.52
2022-08-03T04:06:13.019Z,59.93
2022-08-03T04:09:14.279Z,59.87
2022-08-03T04:11:46.909Z,60.69
2022-08-03T04:14:20.336Z,61.09
2022-08-03T04:16:52.867Z,61.33
2022-08-03T04:19:27.971Z,61.66
2022-08-03T04:22:01.995Z,61.27
2022-08-03T04:24:35.680Z,61.41
2022-08-03T04:27:08.011Z,61.64
2022-08-03T04:29:48.380Z,62.18
2022-08-03T04:32:19.057Z,62.40
2022-08-03T04:34:48.048Z,62.43
2022-08-03T04:37:26.376Z,63.33
2022-08-03T04:39:58.138Z,63.44
2022-08-03T04:42:27.394Z,63.58
2022-08-03T04:45:01.136Z,63.59
2022-08-03T04:47:33.185Z,63.61
2022-08-03T04:50:02.631Z,63.47
2022-08-03T04:52:33.050Z,63.31
2022-08-03T04:55:01.573Z,63.16
2022-08-03T04:57:30.034Z,63.99
2022-08-03T05:00:03.056Z,63.35
2022-08-03T05:02:32.748Z,63.83
2022-08-03T05:05:01.326Z,63.42
2022-08-03T05:07:35.473Z,63.20
2022-08-03T05:10:15.812Z,63.48
2022-08-03T05:12:46.640Z,63.37
2022-08-03T05:15:15.992Z,62.92
2022-08-03T05:17:44.655Z,62.45
2022-08-03T05:20:13.689Z,62.70
2022-08-03T05:22:47.325Z,62.76
2022-08-03T05:25:20.536Z,62.26
2022-08-03T05:27:49.632Z,62.84
2022-08-03T05:30:27.246Z,60.93
2022-08-03T05:33:03.090Z,59.83
2022-08-03T05:35:56.839Z,59.26
2022-08-03T05:38:23.929Z,57.52
2022-08-03T05:41:23.657Z,56.03
2022-08-03T05:43:47.561Z,52.65
2022-08-03T05:46:16.203Z,51.27
2022-08-03T05:48:44.681Z,51.59
2022-08-03T05:51:13.631Z,51.06
2022-08-03T05:53:42.581Z,49.95
2022-08-03T05:56:15.973Z,49.35
2022-08-03T05:58:48.449Z,49.20
2022-08-03T06:01:18.025Z,49.30
2022-08-03T06:03:46.956Z,48.32
2022-08-03T06:06:16.072Z,48.39
2022-08-03T06:08:45.336Z,47.83
2022-08-03T06:11:16.427Z,48.03
2022-08-03T06:13:45.574Z,47.76
2022-08-03T06:16:13.972Z,47.55
2022-08-03T06:18:42.392Z,47.38
2022-08-03T06:21:15.361Z,47.40
2022-08-03T06:23:53.905Z,46.83
2022-08-03T06:26:29.134Z,46.75
2022-08-03T06:28:57.631Z,47.67
2022-08-03T06:31:32.435Z,46.59
2022-08-03T06:34:33.672Z,46.58
2022-08-03T06:36:58.641Z,46.72
2022-08-03T06:39:30.046Z,45.56
2022-08-03T06:41:59.911Z,45.65
2022-08-03T06:44:28.370Z,45.96
2022-08-03T06:46:56.908Z,45.80
2022-08-03T06:49:25.434Z,45.88
2022-08-03T06:52:03.798Z,45.57
2022-08-03T06:54:36.817Z,45.14
2022-08-03T06:57:08.308Z,45.10
2022-08-03T07:00:07.597Z,43.91
2022-08-03T07:02:28.312Z,43.48
2022-08-03T07:04:58.283Z,43.02
2022-08-03T07:07:26.983Z,42.53
2022-08-03T07:09:57.873Z,41.60
2022-08-03T07:12:29.538Z,41.31
2022-08-03T07:15:02.238Z,41.15
2022-08-03T07:17:32.255Z,41.30
2022-08-03T07:20:01.548Z,40.66
2022-08-03T07:22:30.005Z,40.94
2022-08-03T07:24:59.174Z,40.63
2022-08-03T07:27:30.362Z,43.44
2022-08-03T07:30:00.268Z,41.46
2022-08-03T07:32:31.466Z,40.54
2022-08-03T07:35:01.461Z,41.46
2022-08-03T07:37:31.118Z,40.83
2022-08-03T07:39:59.878Z,40.40
2022-08-03T07:42:30.260Z,40.13
2022-08-03T07:44:59.447Z,40.74
2022-08-03T07:47:34.866Z,40.79
2022-08-03T07:50:05.531Z,39.83
2022-08-03T07:52:53.478Z,39.69
2022-08-03T07:55:28.068Z,39.56
2022-08-03T07:58:06.238Z,39.49
2022-08-03T08:00:35.006Z,39.38
2022-08-03T08:03:03.857Z,39.26
2022-08-03T08:05:32.785Z,38.50
2022-08-03T08:08:01.915Z,37.53
2022-08-03T08:10:31.177Z,38.50
2022-08-03T08:13:00.335Z,38.31
2022-08-03T08:15:30.316Z,37.75
2022-08-03T08:18:01.446Z,37.74
2022-08-03T08:20:33.142Z,37.76
2022-08-03T08:23:24.196Z,37.23
2022-08-03T08:25:55.054Z,36.96
2022-08-03T08:28:30.246Z,36.68
2022-08-03T08:31:02.169Z,36.58
2022-08-03T08:34:02.654Z,36.94
2022-08-03T08:36:19.639Z,36.51
2022-08-03T08:38:48.732Z,36.37
2022-08-03T08:41:18.105Z,36.46
2022-08-03T08:43:46.516Z,35.59
2022-08-03T08:46:23.924Z,36.14
2022-08-03T08:48:54.170Z,35.75
2022-08-03T08:51:23.628Z,35.65
2022-08-03T08:54:12.662Z,35.91
2022-08-03T08:56:41.507Z,35.64
2022-08-03T08:59:10.043Z,35.34
2022-08-03T09:01:40.201Z,35.34
2022-08-03T09:04:09.528Z,34.21
2022-08-03T09:06:38.071Z,33.80
2022-08-03T09:09:07.473Z,32.88
2022-08-03T09:11:53.198Z,33.78
2022-08-03T09:14:39.420Z,33.20
2022-08-03T09:17:17.354Z,32.90
2022-08-03T09:20:06.007Z,33.10
2022-08-03T09:22:34.542Z,32.94
2022-08-03T09:27:53.737Z,33.72
2022-08-03T09:30:33.620Z,33.61
2022-08-03T09:33:05.847Z,33.06
2022-08-03T09:38:26.360Z,32.95
2022-08-03T09:40:59.895Z,33.34
2022-08-03T09:43:29.299Z,33.11
2022-08-03T09:46:04.378Z,32.68
2022-08-03T09:48:35.502Z,32.83
2022-08-03T09:51:14.079Z,33.42
2022-08-03T09:54:01.762Z,32.94
2022-08-03T09:56:41.149Z,32.65
2022-08-03T09:59:10.098Z,32.40
2022-08-03T10:01:41.557Z,33.03
2022-08-03T10:04:17.170Z,32.69
2022-08-03T10:06:46.484Z,32.41
2022-08-03T10:09:16.877Z,32.49
2022-08-03T10:11:46.924Z,31.25
2022-08-03T10:14:19.517Z,31.76
2022-08-03T10:16:49.302Z,32.02
2022-08-03T10:19:19.464Z,32.36
2022-08-03T10:21:51.226Z,32.52
2022-08-03T10:24:27.538Z,31.89
2022-08-03T10:27:00.550Z,31.11
2022-08-03T10:29:30.322Z,30.33
2022-08-03T10:32:01.663Z,30.15
2022-08-03T10:34:44.258Z,29.91
2022-08-03T10:37:17.065Z,28.19
2022-08-03T10:39:54.378Z,28.11
2022-08-03T10:42:26.956Z,27.52
2022-08-03T10:45:05.604Z,27.02
2022-08-03T10:47:35.507Z,26.17
2022-08-03T10:50:06.418Z,25.37
2022-08-03T10:52:38.142Z,25.80
2022-08-03T10:55:47.831Z,25.51
2022-08-03T10:58:35.465Z,25.41
2022-08-03T11:01:05.056Z,24.50
2022-08-03T11:03:33.894Z,25.00
2022-08-03T11:06:19.112Z,24.66
2022-08-03T11:08:48.496Z,24.81
2022-08-03T11:11:28.539Z,24.57
2022-08-03T11:14:03.285Z,23.84
2022-08-03T11:16:35.104Z,24.07
2022-08-03T11:19:05.273Z,24.96
2022-08-03T11:22:00.454Z,24.13
2022-08-03T11:25:53.612Z,24.52
2022-08-03T11:28:29.352Z,24.28
2022-08-03T11:31:53.437Z,24.48
2022-08-03T11:34:21.984Z,24.12
2022-08-03T11:37:26.350Z,24.15
2022-08-03T11:39:57.159Z,24.27
2022-08-03T11:42:48.353Z,23.56
2022-08-03T11:45:19.792Z,23.81
2022-08-03T11:47:51.469Z,23.30
2022-08-03T11:50:21.511Z,23.29
2022-08-03T11:52:52.313Z,23.99
2022-08-03T11:55:22.268Z,23.28
2022-08-03T11:59:16.666Z,22.78
2022-08-03T12:00:40.613Z,22.95
2022-08-03T12:03:12.004Z,22.94
2022-08-03T12:05:51.243Z,23.36
2022-08-03T12:08:32.595Z,23.44
2022-08-03T12:11:03.070Z,23.48
2022-08-03T12:14:08.861Z,23.28
2022-08-03T12:16:28.857Z,23.07
2022-08-03T12:18:58.669Z,23.19
2022-08-03T12:21:27.754Z,23.30
2022-08-03T12:24:01.353Z,23.97
2022-08-03T12:26:30.767Z,23.67
2022-08-03T12:28:59.183Z,23.41
2022-08-03T12:31:27.646Z,22.95
2022-08-03T12:33:59.311Z,23.23
2022-08-03T12:36:28.986Z,23.44
2022-08-03T12:39:01.144Z,23.84
2022-08-03T12:41:31.987Z,23.79
2022-08-03T12:44:01.455Z,23.42
2022-08-03T12:46:35.188Z,22.99
2022-08-03T12:49:09.043Z,23.51
2022-08-03T12:51:39.069Z,23.53
2022-08-03T12:54:08.969Z,23.64
2022-08-03T12:57:00.885Z,22.70
2022-08-03T12:59:35.457Z,23.10
2022-08-03T13:02:17.688Z,23.87
2022-08-03T13:04:47.485Z,23.56
2022-08-03T13:07:18.400Z,24.16
2022-08-03T13:09:51.380Z,23.60
2022-08-03T13:12:22.308Z,23.79
2022-08-03T13:14:53.003Z,23.47
2022-08-03T13:17:21.807Z,23.23
2022-08-03T13:19:51.606Z,22.95
2022-08-03T13:22:22.157Z,23.39
2022-08-03T13:24:53.529Z,22.95
2022-08-03T13:28:04.706Z,22.68
2022-08-03T13:30:11.504Z,23.36
2022-08-03T13:32:40.127Z,23.26
2022-08-03T13:35:10.021Z,23.50
2022-08-03T13:37:39.305Z,23.19
2022-08-03T13:40:11.571Z,22.62
2022-08-03T13:42:40.384Z,22.40
2022-08-03T13:45:10.464Z,22.56
2022-08-03T13:47:38.883Z,22.06
2022-08-03T13:50:07.835Z,22.25
2022-08-03T13:52:37.207Z,22.31
2022-08-03T13:55:07.529Z,22.57
2022-08-03T13:58:11.869Z,21.97
2022-08-03T14:00:28.554Z,22.36
2022-08-03T14:03:07.984Z,21.80
2022-08-03T14:05:41.241Z,21.98
2022-08-03T14:08:10.112Z,22.66
2022-08-03T14:10:40.333Z,22.29
2022-08-03T14:13:11.829Z,22.92
2022-08-03T14:15:40.264Z,22.06
2022-08-03T14:18:12.878Z,23.05
2022-08-03T14:20:49.125Z,22.70
2022-08-03T14:23:20.144Z,22.39
2022-08-03T14:25:52.100Z,22.67
2022-08-03T14:28:25.806Z,23.00
2022-08-03T14:30:55.863Z,22.47
2022-08-03T14:33:24.475Z,22.52
2022-08-03T14:35:53.615Z,22.61
2022-08-03T14:38:22.864Z,22.63
2022-08-03T14:40:53.092Z,22.66
2022-08-03T14:43:21.584Z,22.74
2022-08-03T14:45:52.482Z,23.59
2022-08-03T14:50:33.382Z,22.55
2022-08-03T14:51:10.169Z,22.57
2022-08-03T14:53:38.678Z,22.82
2022-08-03T14:56:10.486Z,22.84
2022-08-03T14:58:39.536Z,22.30
2022-08-03T15:02:02.107Z,23.07
2022-08-03T15:03:58.124Z,22.39
2022-08-03T15:06:26.635Z,22.55
2022-08-03T15:09:21.311Z,22.12
2022-08-03T15:11:44.154Z,21.72
2022-08-03T15:14:13.485Z,22.00
2022-08-03T15:16:44.523Z,22.06
2022-08-03T15:20:01.078Z,22.29
2022-08-03T15:22:01.935Z,22.54
2022-08-03T15:24:30.433Z,22.69
2022-08-03T15:26:58.980Z,23.15
2022-08-03T15:30:09.039Z,22.68
2022-08-03T15:32:17.334Z,22.66
2022-08-03T15:34:50.256Z,22.76
2022-08-03T15:37:20.813Z,23.05
2022-08-03T15:39:58.830Z,23.12
2022-08-03T15:42:30.706Z,23.09
2022-08-03T15:44:59.408Z,23.31
2022-08-03T15:47:29.241Z,23.18
2022-08-03T15:49:57.820Z,23.92
2022-08-03T15:52:26.385Z,24.09
2022-08-03T15:54:54.949Z,24.29
2022-08-03T15:57:24.631Z,24.37
2022-08-03T15:59:53.133Z,24.52
2022-08-03T16:02:21.743Z,24.56
2022-08-03T16:04:52.219Z,24.80
2022-08-03T16:07:41.152Z,24.92
2022-08-03T16:10:30.612Z,25.80
2022-08-03T16:13:00.214Z,25.54
2022-08-03T16:15:28.856Z,26.34
2022-08-03T16:17:57.332Z,26.54
2022-08-03T16:20:29.279Z,26.73
2022-08-03T16:23:10.937Z,26.30
2022-08-03T16:25:40.901Z,26.40
2022-08-03T16:28:14.261Z,25.94
2022-08-03T16:30:45.472Z,26.48
2022-08-03T16:33:16.757Z,25.97
2022-08-03T16:35:49.572Z,26.00
2022-08-03T16:38:19.521Z,26.68
2022-08-03T16:40:52.075Z,27.51
2022-08-03T16:43:22.077Z,27.29
2022-08-03T16:45:50.802Z,26.89
2022-08-03T16:48:20.197Z,27.31
2022-08-03T16:50:50.093Z,27.01
2022-08-03T16:53:18.657Z,27.12
2022-08-03T16:56:02.984Z,27.45
2022-08-03T16:58:42.215Z,27.72
2022-08-03T17:01:22.626Z,27.46
2022-08-03T17:04:01.646Z,27.65
2022-08-03T17:06:36.539Z,27.43
2022-08-03T17:09:08.473Z,26.78
2022-08-03T17:11:46.389Z,28.17
2022-08-03T17:14:17.476Z,27.07
2022-08-03T17:16:53.829Z,27.60
2022-08-03T17:19:25.372Z,28.15
2022-08-03T17:22:01.357Z,27.97
2022-08-03T17:24:32.953Z,27.56
2022-08-03T17:27:04.140Z,27.53
2022-08-03T17:29:44.971Z,27.50
2022-08-03T17:32:18.387Z,29.08
2022-08-03T17:34:50.488Z,29.13
2022-08-03T17:37:50.763Z,29.05
2022-08-03T17:40:17.280Z,29.29
2022-08-03T17:42:50.698Z,29.46
2022-08-03T17:45:19.432Z,29.83
2022-08-03T17:47:57.107Z,30.63
2022-08-03T17:50:37.461Z,29.29
2022-08-03T17:53:24.268Z,29.93
2022-08-03T17:56:38.593Z,29.54
2022-08-03T17:59:08.693Z,29.87
2022-08-03T18:02:22.316Z,29.99
2022-08-03T18:05:16.088Z,29.85
2022-08-03T18:07:50.831Z,29.92
2022-08-03T18:10:34.755Z,29.50
2022-08-03T18:13:10.785Z,30.28
2022-08-03T18:15:47.230Z,30.24
2022-08-03T18:18:32.388Z,30.36
2022-08-03T18:21:04.766Z,30.16
2022-08-03T18:23:37.334Z,30.66
2022-08-03T18:26:10.796Z,31.06
2022-08-03T18:28:41.624Z,31.79
2022-08-03T18:31:59.834Z,31.25
2022-08-03T18:34:32.666Z,31.18
2022-08-03T18:36:55.829Z,32.09
2022-08-03T18:39:24.570Z,32.33
2022-08-03T18:41:55.160Z,31.97
2022-08-03T18:44:37.715Z,32.34
2022-08-03T18:47:50.407Z,32.29
2022-08-03T18:50:35.544Z,33.21
2022-08-03T18:53:16.337Z,33.81
2022-08-03T18:56:01.907Z,33.64
2022-08-03T18:58:38.909Z,34.50
2022-08-03T19:01:56.472Z,35.10
2022-08-03T19:04:10.294Z,34.90
2022-08-03T19:06:43.088Z,35.49
2022-08-03T19:09:20.177Z,35.95
2022-08-03T19:12:12.740Z,36.63
2022-08-03T19:14:51.920Z,36.74
2022-08-03T19:17:23.626Z,37.50
2022-08-03T19:19:59.417Z,38.03
2022-08-03T19:22:30.971Z,37.55
2022-08-03T19:25:02.366Z,37.93
2022-08-03T19:27:32.118Z,38.76
2022-08-03T19:32:53.755Z,38.75
2022-08-03T19:35:52.046Z,39.18
2022-08-03T19:38:11.891Z,40.12
2022-08-03T19:40:43.686Z,39.61
2022-08-03T19:43:23.349Z,39.90
2022-08-03T19:46:05.153Z,40.71
2022-08-03T19:48:37.084Z,41.11
2022-08-03T19:51:12.113Z,41.36
2022-08-03T19:53:44.919Z,41.84
2022-08-03T19:56:15.455Z,41.84
2022-08-03T19:58:45.857Z,42.32
2022-08-03T20:01:23.737Z,42.79
2022-08-03T20:03:57.344Z,42.60
2022-08-03T20:06:25.895Z,43.12
2022-08-03T20:08:54.769Z,43.41
2022-08-03T20:11:28.870Z,43.94
2022-08-03T20:13:59.273Z,44.09
2022-08-03T20:16:29.203Z,44.20
2022-08-03T20:18:57.985Z,44.22
2022-08-03T20:21:32.495Z,44.66
2022-08-03T20:24:24.461Z,44.91
2022-08-03T20:26:54.767Z,45.26
2022-08-03T20:30:05.132Z,45.27
2022-08-03T20:32:24.664Z,45.18
2022-08-03T20:34:53.649Z,45.41
2022-08-03T20:37:22.146Z,45.50
2022-08-03T20:39:50.763Z,45.61
2022-08-03T20:42:21.596Z,45.88
2022-08-03T20:45:04.567Z,46.19
2022-08-03T20:47:36.841Z,46.39
2022-08-03T20:50:22.101Z,46.29
2022-08-03T20:52:51.177Z,46.74
2022-08-03T20:55:47.101Z,47.06
2022-08-03T20:58:08.730Z,47.74
2022-08-03T21:00:37.529Z,47.97
2022-08-03T21:03:08.979Z,48.11
2022-08-03T21:05:51.281Z,48.66
2022-08-03T21:08:23.758Z,49.10
2022-08-03T21:10:54.317Z,49.26
2022-08-03T21:13:08.689Z,38.86
2022-08-03T21:13:28.938Z,49.43
2022-08-03T21:16:11.593Z,49.89
2022-08-03T21:18:50.061Z,50.06
2022-08-03T21:21:19.955Z,50.41
2022-08-03T21:23:52.709Z,50.66
2022-08-03T21:26:22.961Z,50.93
2022-08-03T21:28:53.810Z,50.76
2022-08-03T21:31:25.604Z,50.87
2022-08-03T21:33:57.534Z,51.18
2022-08-03T21:36:28.679Z,51.32
2022-08-03T21:38:58.276Z,51.89
2022-08-03T21:41:28.301Z,51.68
2022-08-03T21:43:56.762Z,52.00
2022-08-03T21:46:27.012Z,52.36
2022-08-03T21:50:04.884Z,52.63
2022-08-03T21:51:50.925Z,53.16
2022-08-03T21:54:21.854Z,53.04
2022-08-03T21:56:52.398Z,53.13
2022-08-03T21:59:22.769Z,53.39
2022-08-03T22:01:55.177Z,53.94
2022-08-03T22:04:50.949Z,53.77
2022-08-03T22:07:18.281Z,53.81
2022-08-03T22:09:51.157Z,54.10
2022-08-03T22:12:24.407Z,54.02
2022-08-03T22:15:00.763Z,54.45
2022-08-03T22:17:54.849Z,54.50
2022-08-03T22:20:22.765Z,54.28
2022-08-03T22:22:56.938Z,54.70
2022-08-03T22:25:29.909Z,54.76
2022-08-03T22:28:00.626Z,54.68
2022-08-03T22:30:29.307Z,54.16
2022-08-03T22:32:59.176Z,53.87
2022-08-03T22:35:29.483Z,54.03
2022-08-03T22:37:59.645Z,53.88
2022-08-03T22:40:28.759Z,54.34
2022-08-03T22:42:58.133Z,54.76
2022-08-03T22:46:07.218Z,54.50
2022-08-03T22:48:17.395Z,54.66
2022-08-03T22:50:48.072Z,55.11
2022-08-03T22:53:18.410Z,55.08
2022-08-03T22:55:47.159Z,55.54
2022-08-03T22:58:16.625Z,55.59
2022-08-03T23:00:53.834Z,55.57
2022-08-03T23:03:25.564Z,55.22
2022-08-03T23:06:19.306Z,55.29
2022-08-03T23:08:48.729Z,54.95
2022-08-03T23:11:19.565Z,55.14
2022-08-03T23:13:53.259Z,55.40
2022-08-03T23:16:29.392Z,54.95
2022-08-03T23:19:16.364Z,54.63
2022-08-03T23:21:59.844Z,55.23
2022-08-03T23:24:30.485Z,55.07
2022-08-03T23:26:59.421Z,55.09
2022-08-03T23:29:31.424Z,55.14
2022-08-03T23:32:02.253Z,55.51
2022-08-03T23:34:51.114Z,55.22
2022-08-03T23:37:21.418Z,55.38
2022-08-03T23:39:50.623Z,55.62
2022-08-03T23:42:21.369Z,55.55
2022-08-03T23:44:55.232Z,55.55
2022-08-03T23:47:24.133Z,55.87
2022-08-03T23:50:12.763Z,55.57
2022-08-03T23:52:53.847Z,55.53
2022-08-03T23:55:37.555Z,55.40
2022-08-03T23:58:14.484Z,55.39
